Time;durP1;ratioP1;P1;durP2;ratioP2;P2;SDS_P1;SDS_P2;PMS_P1;PMS_P2;Temp;Humidity;BMP_temperature;BMP_pressure;BME280_temperature;BME280_humidity;BME280_pressure;Samples;Min_cycle;Max_cycle;Signal;HPM_P1;HPM_P2
2022/03/15 00:00:09;;;;;;;9.97;6.87;;;;;;;3.40;100.00;102063.16;676226;29;1789;-80
2022/03/15 00:00:34;;;;;;;10.77;6.90;;;;;;;3.36;100.00;102058.66;668536;29;1080;-80
2022/03/15 00:00:55;;;;;;;11.73;7.60;;;;;;;3.32;100.00;102055.84;670757;29;818;-81
2022/03/15 00:01:17;;;;;;;11.65;8.00;;;;;;;3.27;100.00;102053.06;670343;29;1216;-81
2022/03/15 00:01:37;;;;;;;11.65;7.35;;;;;;;3.20;100.00;102069.09;671899;29;4332;-81
2022/03/15 00:01:58;;;;;;;10.20;7.57;;;;;;;3.16;100.00;102069.75;672496;29;1453;-80
2022/03/15 00:02:20;;;;;;;10.57;7.72;;;;;;;3.13;100.00;102055.00;674149;29;1283;-81
2022/03/15 00:02:40;;;;;;;12.50;7.97;;;;;;;3.11;100.00;102055.72;673787;29;982;-81
2022/03/15 00:03:01;;;;;;;11.83;7.80;;;;;;;3.04;100.00;102063.16;671468;29;1151;-81
2022/03/15 00:03:22;;;;;;;12.27;7.90;;;;;;;3.06;100.00;102056.41;670959;29;1617;-81
2022/03/15 00:03:43;;;;;;;11.05;7.78;;;;;;;3.09;100.00;102060.81;670228;29;1390;-80
2022/03/15 00:04:05;;;;;;;9.23;6.90;;;;;;;3.21;100.00;102051.06;669839;29;2744;-81
2022/03/15 00:04:27;;;;;;;8.63;6.93;;;;;;;3.28;100.00;102049.69;669676;29;4419;-80
2022/03/15 00:04:47;;;;;;;10.60;7.73;;;;;;;3.24;100.00;102052.94;670271;29;904;-81
2022/03/15 00:05:08;;;;;;;11.77;7.82;;;;;;;3.23;100.00;102053.72;673190;29;1479;-80
2022/03/15 00:05:31;;;;;;;10.15;7.45;;;;;;;3.18;100.00;102065.53;677223;28;1506;-81
2022/03/15 00:06:01;;;;;;;10.18;7.63;;;;;;;3.16;100.00;102090.44;675791;29;1156;-81
2022/03/15 00:06:24;;;;;;;10.45;7.60;;;;;;;3.09;100.00;102052.16;678187;29;1029;-80
2022/03/15 00:06:46;;;;;;;12.20;7.60;;;;;;;3.01;100.00;102078.53;673403;29;1316;-80
2022/03/15 00:07:10;;;;;;;12.10;7.63;;;;;;;3.00;100.00;102063.81;671209;29;1233;-81
2022/03/15 00:07:30;;;;;;;11.23;7.82;;;;;;;2.95;100.00;102042.06;672813;29;4320;-81
2022/03/15 00:07:53;;;;;;;11.13;8.00;;;;;;;2.91;100.00;102068.56;672610;29;3877;-82
2022/03/15 00:08:15;;;;;;;11.60;8.15;;;;;;;2.91;100.00;102073.75;677462;29;1288;-80
2022/03/15 00:08:36;;;;;;;13.10;7.88;;;;;;;2.92;100.00;102035.84;676786;29;1083;-81
2022/03/15 00:08:57;;;;;;;10.50;7.18;;;;;;;2.97;100.00;102076.59;681468;29;1204;-81
2022/03/15 00:09:17;;;;;;;12.00;7.50;;;;;;;2.99;100.00;102053.44;679873;28;1380;-80
2022/03/15 00:09:41;;;;;;;12.10;7.45;;;;;;;3.06;100.00;102073.59;676756;29;1488;-80
2022/03/15 00:10:02;;;;;;;10.20;7.22;;;;;;;3.14;100.00;102066.22;678184;29;1472;-81
2022/03/15 00:10:29;;;;;;;11.73;7.45;;;;;;;3.11;100.00;102042.81;670035;29;4396;-81
2022/03/15 00:10:58;;;;;;;12.85;7.95;;;;;;;3.03;100.00;102051.09;674790;29;931;-80
2022/03/15 00:11:18;;;;;;;10.60;7.45;;;;;;;2.97;100.00;102055.94;673040;29;1449;-81
2022/03/15 00:11:39;;;;;;;11.60;7.97;;;;;;;2.94;100.00;102060.97;672893;29;1342;-81
2022/03/15 00:12:06;;;;;;;11.63;7.97;;;;;;;2.88;100.00;102077.06;673383;29;1541;-80
2022/03/15 00:12:28;;;;;;;11.80;8.00;;;;;;;2.85;100.00;102055.34;673916;29;1293;-81
2022/03/15 00:12:58;;;;;;;11.30;7.88;;;;;;;2.90;100.00;102078.00;675637;29;1269;-80
2022/03/15 00:13:20;;;;;;;11.45;7.35;;;;;;;3.00;100.00;102037.13;674796;29;4284;-80
2022/03/15 00:13:41;;;;;;;12.50;7.75;;;;;;;3.11;100.00;102059.19;675751;29;984;-81
2022/03/15 00:14:01;;;;;;;11.30;7.68;;;;;;;3.10;100.00;102043.63;675925;29;1375;-80
2022/03/15 00:14:23;;;;;;;9.67;7.60;;;;;;;3.09;100.00;102054.75;672221;29;1124;-81
2022/03/15 00:14:44;;;;;;;11.57;7.78;;;;;;;3.01;100.00;102049.22;672121;29;1300;-80
2022/03/15 00:15:08;;;;;;;12.05;7.78;;;;;;;3.02;100.00;102044.13;675157;29;1332;-81
2022/03/15 00:15:28;;;;;;;10.80;7.40;;;;;;;3.06;100.00;102053.81;678227;29;4494;-80
2022/03/15 00:15:50;;;;;;;11.33;7.47;;;;;;;3.04;100.00;102047.66;680524;28;1442;-81
2022/03/15 00:16:10;;;;;;;12.10;7.85;;;;;;;2.97;100.00;102049.91;677845;29;1373;-81
2022/03/15 00:16:31;;;;;;;11.68;7.90;;;;;;;2.94;100.00;102053.22;676702;29;4286;-81
2022/03/15 00:16:55;;;;;;;11.23;7.80;;;;;;;2.90;100.00;102044.41;675957;29;1305;-80
2022/03/15 00:17:18;;;;;;;11.90;8.13;;;;;;;2.89;100.00;102084.00;675632;29;1018;-81
2022/03/15 00:17:42;;;;;;;10.85;8.07;;;;;;;2.88;100.00;102039.97;674553;29;1154;-81
2022/03/15 00:18:03;;;;;;;11.82;8.02;;;;;;;2.97;100.00;102042.16;677734;29;1903;-81
2022/03/15 00:18:24;;;;;;;11.20;7.50;;;;;;;2.99;100.00;102056.00;675616;29;1321;-81
2022/03/15 00:18:46;;;;;;;11.10;7.20;;;;;;;2.97;100.00;102063.69;675031;29;1189;-81
2022/03/15 00:19:06;;;;;;;11.65;7.68;;;;;;;2.97;100.00;102075.72;673826;29;1380;-81
2022/03/15 00:19:27;;;;;;;11.48;7.60;;;;;;;2.99;100.00;102045.66;670871;29;4374;-81
2022/03/15 00:19:47;;;;;;;10.35;7.40;;;;;;;2.99;100.00;102046.59;673514;29;1447;-81
2022/03/15 00:20:12;;;;;;;11.37;7.67;;;;;;;2.95;100.00;102047.25;675933;29;1204;-81
2022/03/15 00:20:32;;;;;;;12.15;7.88;;;;;;;2.95;100.00;102039.50;672138;29;1640;-81
2022/03/15 00:20:53;;;;;;;12.50;8.17;;;;;;;2.92;100.00;102048.78;673661;29;920;-81
2022/03/15 00:21:15;;;;;;;11.45;8.65;;;;;;;2.85;100.00;102060.50;677105;29;1682;-81
2022/03/15 00:21:37;;;;;;;12.10;8.50;;;;;;;2.81;100.00;102032.75;675166;29;1347;-81
2022/03/15 00:21:58;;;;;;;11.73;8.10;;;;;;;2.78;100.00;102048.09;673621;29;1067;-81
2022/03/15 00:22:22;;;;;;;11.87;8.30;;;;;;;2.79;100.00;102039.56;677276;29;4328;-81
2022/03/15 00:22:45;;;;;;;11.23;8.10;;;;;;;2.80;100.00;102036.16;673257;29;1391;-81
2022/03/15 00:23:07;;;;;;;11.73;8.00;;;;;;;2.79;100.00;102039.56;673119;29;1758;-81
2022/03/15 00:23:28;;;;;;;12.63;8.27;;;;;;;2.76;100.00;102042.00;675643;29;897;-80
2022/03/15 00:23:49;;;;;;;13.05;8.10;;;;;;;2.80;100.00;102051.66;679504;29;900;-81
2022/03/15 00:24:09;;;;;;;10.87;7.67;;;;;;;2.86;100.00;102070.03;674129;29;1281;-82
2022/03/15 00:24:30;;;;;;;10.87;7.30;;;;;;;2.94;100.00;102037.72;673846;29;1218;-80
2022/03/15 00:24:55;;;;;;;10.85;7.70;;;;;;;2.98;100.00;102051.69;673182;29;1404;-81
2022/03/15 00:25:17;;;;;;;11.77;8.15;;;;;;;2.95;100.00;102078.25;670421;29;1369;-81
2022/03/15 00:25:37;;;;;;;11.10;7.70;;;;;;;2.96;100.00;102051.56;673778;29;4444;-81
2022/03/15 00:26:00;;;;;;;10.67;7.07;;;;;;;2.98;100.00;102052.56;673628;29;1289;-81
2022/03/15 00:26:20;;;;;;;12.43;7.65;;;;;;;3.02;100.00;102038.97;673661;29;1270;-81
2022/03/15 00:26:41;;;;;;;11.60;8.18;;;;;;;3.03;100.00;102056.25;673332;29;1551;-81
2022/03/15 00:27:05;;;;;;;11.45;7.45;;;;;;;3.03;100.00;102051.09;677485;29;1618;-81
2022/03/15 00:27:25;;;;;;;11.97;7.40;;;;;;;3.00;100.00;102043.16;675347;29;1237;-81
2022/03/15 00:27:47;;;;;;;11.07;7.90;;;;;;;2.99;100.00;102037.91;674905;29;1083;-81
2022/03/15 00:28:08;;;;;;;12.57;7.68;;;;;;;2.95;100.00;102047.25;670291;29;1242;-81
2022/03/15 00:28:29;;;;;;;12.15;7.78;;;;;;;2.90;100.00;102059.91;669349;29;4341;-82
2022/03/15 00:28:52;;;;;;;11.50;7.43;;;;;;;2.86;100.00;102036.44;675704;29;1293;-81
2022/03/15 00:29:12;;;;;;;12.00;8.05;;;;;;;2.84;100.00;102043.25;681339;28;1215;-81
2022/03/15 00:29:35;;;;;;;12.07;8.47;;;;;;;2.81;100.00;102041.41;673930;29;1267;-81
2022/03/15 00:29:56;;;;;;;12.10;8.23;;;;;;;2.80;100.00;102036.16;672900;29;1322;-81
2022/03/15 00:30:18;;;;;;;11.18;8.27;;;;;;;2.77;100.00;102036.00;673767;29;1419;-81
2022/03/15 00:30:42;;;;;;;12.63;7.85;;;;;;;2.80;100.00;102033.59;676721;29;1539;-81
2022/03/15 00:31:03;;;;;;;11.65;7.60;;;;;;;2.83;100.00;102031.16;675394;29;1173;-81
2022/03/15 00:31:26;;;;;;;12.30;7.20;;;;;;;2.82;100.00;102042.28;673927;29;4342;-81
2022/03/15 00:31:47;;;;;;;11.25;7.55;;;;;;;2.83;100.00;102056.97;675727;29;1539;-81
2022/03/15 00:32:08;;;;;;;11.40;7.60;;;;;;;2.85;100.00;102037.25;678023;29;1446;-81
2022/03/15 00:32:31;;;;;;;10.82;7.25;;;;;;;2.88;100.00;102069.31;680065;29;1511;-79
2022/03/15 00:32:54;;;;;;;10.15;6.93;;;;;;;2.92;100.00;102034.16;678099;29;1484;-80
2022/03/15 00:33:15;;;;;;;10.97;7.43;;;;;;;2.92;100.00;102030.69;677205;29;1213;-81
2022/03/15 00:33:37;;;;;;;11.32;7.63;;;;;;;2.86;100.00;102052.81;673633;29;1488;-81
2022/03/15 00:34:03;;;;;;;11.23;7.70;;;;;;;2.84;100.00;102061.34;671851;29;1456;-81
2022/03/15 00:34:24;;;;;;;11.75;7.68;;;;;;;2.85;100.00;102051.06;673871;29;4463;-82
2022/03/15 00:34:44;;;;;;;11.27;7.47;;;;;;;2.86;100.00;102041.63;677172;29;988;-82
2022/03/15 00:35:16;;;;;;;10.37;7.43;;;;;;;2.90;100.00;102053.88;679653;29;951;-82
2022/03/15 00:35:37;;;;;;;11.98;8.18;;;;;;;2.94;100.00;102036.84;678717;29;1406;-82
2022/03/15 00:36:01;;;;;;;12.00;8.20;;;;;;;2.89;100.00;102039.19;677502;28;1513;-81
2022/03/15 00:36:25;;;;;;;11.02;7.38;;;;;;;2.89;100.00;102060.75;676779;29;1290;-82
2022/03/15 00:36:49;;;;;;;11.50;7.57;;;;;;;2.93;100.00;102030.75;679834;29;903;-82
2022/03/15 00:37:12;;;;;;;10.65;7.43;;;;;;;2.92;100.00;102039.31;675165;29;1705;-81
2022/03/15 00:37:36;;;;;;;11.18;7.40;;;;;;;2.93;100.00;102025.59;673866;29;4287;-82
2022/03/15 00:37:56;;;;;;;11.50;7.40;;;;;;;2.93;100.00;102030.75;673570;29;1971;-81
2022/03/15 00:38:17;;;;;;;11.52;7.63;;;;;;;2.91;100.00;102058.22;675347;29;1641;-82
2022/03/15 00:38:41;;;;;;;10.93;7.63;;;;;;;2.96;100.00;102056.75;670694;29;1257;-82
2022/03/15 00:39:05;;;;;;;12.23;7.90;;;;;;;2.98;100.00;102037.06;672869;29;1309;-82
2022/03/15 00:39:26;;;;;;;10.80;7.03;;;;;;;2.95;100.00;102046.34;672124;29;1249;-81
2022/03/15 00:39:46;;;;;;;10.00;6.90;;;;;;;2.98;100.00;102026.72;669577;29;1577;-82
2022/03/15 00:40:10;;;;;;;11.63;7.10;;;;;;;3.04;100.00;102027.00;674270;29;1611;-81
2022/03/15 00:40:40;;;;;;;10.52;7.38;;;;;;;3.03;100.00;102050.19;673158;29;4291;-82
2022/03/15 00:41:04;;;;;;;12.20;7.30;;;;;;;3.00;100.00;102065.53;675724;29;1633;-81
2022/03/15 00:41:28;;;;;;;12.25;7.78;;;;;;;2.95;100.00;102029.16;675565;29;2011;-82
2022/03/15 00:41:54;;;;;;;11.90;7.95;;;;;;;2.92;100.00;102026.41;679052;28;1433;-81
2022/03/15 00:42:17;;;;;;;11.98;7.45;;;;;;;2.95;100.00;102030.84;678048;28;1198;-82
2022/03/15 00:42:39;;;;;;;10.85;7.38;;;;;;;2.99;100.00;102032.75;675181;29;1368;-81
2022/03/15 00:43:04;;;;;;;10.32;7.25;;;;;;;2.97;100.00;102022.34;677755;29;1360;-81
2022/03/15 00:43:27;;;;;;;10.77;7.65;;;;;;;2.95;100.00;102051.50;677675;28;4320;-82
2022/03/15 00:43:50;;;;;;;12.30;8.10;;;;;;;2.92;100.00;102057.41;678945;28;1259;-81
2022/03/15 00:44:10;;;;;;;11.38;7.75;;;;;;;2.90;100.00;102048.72;676907;29;893;-82
2022/03/15 00:44:31;;;;;;;11.57;7.60;;;;;;;2.87;100.00;102058.91;676726;29;1329;-81
2022/03/15 00:44:51;;;;;;;11.50;7.80;;;;;;;2.83;100.00;102037.19;676059;29;1306;-81
2022/03/15 00:45:12;;;;;;;11.45;7.95;;;;;;;2.85;100.00;102037.25;674899;29;1216;-82
2022/03/15 00:45:39;;;;;;;10.25;7.60;;;;;;;2.84;100.00;102027.75;675060;29;794;-82
2022/03/15 00:46:00;;;;;;;11.02;7.40;;;;;;;2.88;100.00;102024.47;674688;29;1620;-82
2022/03/15 00:46:24;;;;;;;10.38;7.03;;;;;;;2.88;100.00;102045.16;674590;29;4331;-80
2022/03/15 00:46:44;;;;;;;9.52;7.15;;;;;;;2.87;100.00;102023.59;676260;29;1282;-79
2022/03/15 00:47:08;;;;;;;10.63;7.40;;;;;;;2.89;100.00;102024.59;679193;29;1159;-80
2022/03/15 00:47:35;;;;;;;11.13;7.60;;;;;;;2.86;100.00;102049.38;679055;29;1029;-82
2022/03/15 00:47:58;;;;;;;12.20;7.75;;;;;;;2.83;100.00;102016.53;678670;29;904;-79
2022/03/15 00:48:19;;;;;;;11.74;7.82;;;;;;;2.83;100.00;102010.47;676062;29;1408;-80
2022/03/15 00:48:40;;;;;;;11.23;7.68;;;;;;;2.84;100.00;102048.41;673841;29;1606;-79
2022/03/15 00:49:01;;;;;;;11.57;7.63;;;;;;;2.81;100.00;102020.75;672084;29;1478;-79
2022/03/15 00:49:24;;;;;;;11.52;7.47;;;;;;;2.78;100.00;102048.97;674136;29;4329;-79
2022/03/15 00:49:47;;;;;;;11.73;7.78;;;;;;;2.85;100.00;102034.66;673999;29;1113;-79
2022/03/15 00:50:08;;;;;;;10.60;7.20;;;;;;;2.88;100.00;102027.06;672868;29;1572;-80
2022/03/15 00:50:29;;;;;;;12.98;7.35;;;;;;;2.85;100.00;102025.25;675189;29;1597;-80
2022/03/15 00:50:51;;;;;;;12.15;7.57;;;;;;;2.84;100.00;102023.47;674945;29;1043;-79
2022/03/15 00:51:11;;;;;;;11.75;7.85;;;;;;;2.82;100.00;102025.06;674702;29;1687;-79
2022/03/15 00:51:34;;;;;;;11.73;7.60;;;;;;;2.79;100.00;102027.50;677432;29;1269;-79
2022/03/15 00:51:56;;;;;;;11.43;7.30;;;;;;;2.78;100.00;102035.19;675148;29;1400;-80
2022/03/15 00:52:16;;;;;;;11.83;7.70;;;;;;;2.77;100.00;102028.25;677995;29;1171;-80
2022/03/15 00:52:40;;;;;;;12.05;7.93;;;;;;;2.73;100.00;102022.94;675008;29;4318;-80
2022/03/15 00:53:03;;;;;;;10.20;7.60;;;;;;;2.75;100.00;102032.47;680731;29;2151;-80
2022/03/15 00:53:24;;;;;;;11.07;7.63;;;;;;;2.73;100.00;102029.81;677776;29;1674;-80
2022/03/15 00:53:44;;;;;;;11.73;8.13;;;;;;;2.73;100.00;102046.19;676272;29;1568;-81
2022/03/15 00:54:06;;;;;;;12.50;8.23;;;;;;;2.71;100.00;102027.16;676283;29;1643;-80
2022/03/15 00:54:28;;;;;;;11.57;7.55;;;;;;;2.78;100.00;102033.47;672763;29;1521;-80
2022/03/15 00:54:48;;;;;;;11.60;7.20;;;;;;;2.87;100.00;102033.94;674863;29;1758;-80
2022/03/15 00:55:11;;;;;;;11.18;7.13;;;;;;;2.88;100.00;102032.22;678199;29;1391;-81
2022/03/15 00:55:32;;;;;;;10.70;7.57;;;;;;;2.84;100.00;102033.78;676807;29;4325;-80
2022/03/15 00:55:52;;;;;;;11.73;7.82;;;;;;;2.84;100.00;102031.22;675049;29;1463;-80
2022/03/15 00:56:16;;;;;;;11.35;7.55;;;;;;;2.83;100.00;102036.31;674949;29;1423;-80
2022/03/15 00:56:39;;;;;;;11.90;7.57;;;;;;;2.87;100.00;102033.06;675740;29;1583;-80
2022/03/15 00:57:02;;;;;;;10.95;7.22;;;;;;;2.90;100.00;102033.22;673352;29;1685;-81
2022/03/15 00:57:22;;;;;;;11.05;7.53;;;;;;;2.88;100.00;102029.66;673048;29;885;-80
2022/03/15 00:57:43;;;;;;;11.27;7.83;;;;;;;2.85;100.00;102033.00;671623;29;1340;-80
2022/03/15 00:58:05;;;;;;;12.30;7.80;;;;;;;2.85;100.00;102039.84;672581;29;1946;-80
2022/03/15 00:58:28;;;;;;;12.07;7.53;;;;;;;2.80;100.00;102057.69;672405;29;4513;-79
2022/03/15 00:58:52;;;;;;;14.63;8.23;;;;;;;2.76;100.00;102042.00;677458;29;1720;-80
2022/03/15 00:59:15;;;;;;;13.35;8.18;;;;;;;2.68;100.00;102060.53;672612;29;1251;-80
2022/03/15 00:59:41;;;;;;;11.23;7.82;;;;;;;2.67;100.00;102063.06;675617;29;1420;-80
2022/03/15 01:00:08;;;;;;;11.05;7.80;;;;;;;2.64;100.00;102066.38;675434;29;1498;-79
2022/03/15 01:00:31;;;;;;;11.77;7.68;;;;;;;2.73;100.00;102046.19;673962;29;1631;-80
2022/03/15 01:00:52;;;;;;;10.13;7.22;;;;;;;2.80;100.00;102060.28;675071;29;1372;-80
2022/03/15 01:01:12;;;;;;;10.30;7.17;;;;;;;2.83;100.00;102028.56;678253;29;1760;-81
2022/03/15 01:01:37;;;;;;;10.77;7.32;;;;;;;2.83;100.00;102059.56;675115;29;4345;-79
2022/03/15 01:01:58;;;;;;;11.57;7.63;;;;;;;2.83;100.00;102054.38;675561;29;1400;-80
2022/03/15 01:02:25;;;;;;;12.25;8.05;;;;;;;2.78;100.00;102071.34;675381;29;1305;-80
2022/03/15 01:02:46;;;;;;;12.10;7.57;;;;;;;2.72;100.00;102041.81;675829;29;1320;-81
2022/03/15 01:03:06;;;;;;;11.90;7.82;;;;;;;2.70;100.00;102034.78;675089;29;1331;-80
2022/03/15 01:03:30;;;;;;;12.70;8.07;;;;;;;2.66;100.00;102063.84;675018;29;1331;-80
2022/03/15 01:03:50;;;;;;;11.07;7.90;;;;;;;2.64;100.00;102039.69;675397;29;1019;-80
2022/03/15 01:04:12;;;;;;;11.20;7.70;;;;;;;2.62;100.00;102065.41;672610;29;4038;-81
2022/03/15 01:04:32;;;;;;;12.20;7.82;;;;;;;2.66;100.00;102054.44;672529;29;4384;-82
2022/03/15 01:04:53;;;;;;;12.80;7.75;;;;;;;2.71;100.00;102045.22;673048;29;1142;-81
2022/03/15 01:05:14;;;;;;;11.77;7.90;;;;;;;2.73;100.00;102065.97;673497;29;1174;-81
2022/03/15 01:05:35;;;;;;;11.90;7.90;;;;;;;2.71;100.00;102034.91;675365;29;1532;-80
2022/03/15 01:05:57;;;;;;;11.63;7.63;;;;;;;2.68;100.00;102068.28;679790;29;1328;-81
2022/03/15 01:06:20;;;;;;;11.80;7.97;;;;;;;2.69;100.00;102049.41;677176;29;1512;-81
2022/03/15 01:06:47;;;;;;;11.10;7.93;;;;;;;2.70;100.00;102039.97;675730;29;1311;-81
2022/03/15 01:07:08;;;;;;;12.32;7.90;;;;;;;2.73;100.00;102047.88;676467;29;1436;-81
2022/03/15 01:07:28;;;;;;;10.88;7.55;;;;;;;2.72;100.00;102043.53;674802;29;4297;-81
2022/03/15 01:07:49;;;;;;;11.63;7.57;;;;;;;2.69;100.00;102044.25;673603;29;1423;-81
2022/03/15 01:08:09;;;;;;;11.48;7.88;;;;;;;2.65;100.00;102039.75;673632;29;1287;-81
2022/03/15 01:08:30;;;;;;;10.40;7.37;;;;;;;2.63;100.00;102048.22;671401;29;1210;-80
2022/03/15 01:08:51;;;;;;;11.38;7.53;;;;;;;2.61;100.00;102035.25;668153;29;1382;-81
2022/03/15 01:09:12;;;;;;;12.50;7.90;;;;;;;2.60;100.00;102067.03;667646;29;1375;-80
2022/03/15 01:09:35;;;;;;;12.40;8.13;;;;;;;2.59;100.00;102062.69;672971;29;1257;-81
2022/03/15 01:09:56;;;;;;;12.77;8.50;;;;;;;2.61;100.00;102047.28;674097;29;2364;-81
2022/03/15 01:10:16;;;;;;;12.07;7.87;;;;;;;2.65;100.00;102046.63;673321;29;1437;-79
2022/03/15 01:10:37;;;;;;;10.93;7.70;;;;;;;2.67;100.00;102044.97;672460;29;4288;-80
2022/03/15 01:11:02;;;;;;;11.07;7.80;;;;;;;2.73;100.00;102046.19;674039;29;1035;-80
2022/03/15 01:11:22;;;;;;;10.18;7.03;;;;;;;2.78;100.00;102061.00;677397;29;1273;-79
2022/03/15 01:11:43;;;;;;;10.03;7.07;;;;;;;2.86;100.00;102037.31;673778;29;1232;-80
2022/03/15 01:12:04;;;;;;;9.93;6.95;;;;;;;2.86;100.00;102063.16;674132;29;1415;-82
2022/03/15 01:12:24;;;;;;;11.50;7.38;;;;;;;2.81;100.00;102054.31;674057;29;1522;-82
2022/03/15 01:12:45;;;;;;;10.90;7.50;;;;;;;2.77;100.00;102046.31;674094;29;1498;-80
2022/03/15 01:13:05;;;;;;;11.90;8.07;;;;;;;2.69;100.00;102039.09;677248;29;2362;-80
2022/03/15 01:13:29;;;;;;;12.48;7.80;;;;;;;2.68;100.00;102062.25;675741;29;4415;-79
2022/03/15 01:13:50;;;;;;;11.98;8.13;;;;;;;2.65;100.00;102062.09;673407;29;1502;-80
2022/03/15 01:14:16;;;;;;;12.05;7.90;;;;;;;2.61;100.00;102071.38;668652;29;1366;-79
2022/03/15 01:14:37;;;;;;;10.23;7.50;;;;;;;2.65;100.00;102052.66;672529;29;1377;-80
2022/03/15 01:14:58;;;;;;;10.73;7.13;;;;;;;2.68;100.00;102037.31;676077;29;1419;-80
2022/03/15 01:15:21;;;;;;;11.15;7.32;;;;;;;2.73;100.00;102048.75;674780;29;4672;-81
2022/03/15 01:15:43;;;;;;;11.07;7.43;;;;;;;2.79;100.00;102057.63;675217;29;861;-80
2022/03/15 01:16:06;;;;;;;9.82;7.10;;;;;;;2.85;100.00;102045.00;675677;29;1575;-80
2022/03/15 01:16:26;;;;;;;9.65;6.90;;;;;;;2.88;100.00;102055.47;675263;29;4357;-81
2022/03/15 01:16:47;;;;;;;11.40;7.00;;;;;;;2.81;100.00;102068.91;675204;29;1459;-81
2022/03/15 01:17:08;;;;;;;10.75;7.10;;;;;;;2.84;100.00;102063.91;674280;29;1456;-81
2022/03/15 01:17:28;;;;;;;10.07;7.25;;;;;;;2.86;100.00;102033.88;673718;29;1236;-81
2022/03/15 01:17:49;;;;;;;9.87;7.33;;;;;;;2.84;100.00;102058.75;672827;29;1950;-82
2022/03/15 01:18:13;;;;;;;11.13;7.50;;;;;;;2.76;100.00;102060.06;670754;29;1519;-81
2022/03/15 01:18:34;;;;;;;10.70;7.43;;;;;;;2.70;100.00;102039.97;672532;29;1503;-80
2022/03/15 01:18:56;;;;;;;11.33;7.67;;;;;;;2.67;100.00;102070.81;672733;29;1347;-81
2022/03/15 01:19:20;;;;;;;11.75;7.88;;;;;;;2.73;100.00;102030.69;666710;29;5491;-80
2022/03/15 01:19:44;;;;;;;11.88;7.38;;;;;;;2.77;100.00;102029.16;673091;29;1297;-80
2022/03/15 01:20:07;;;;;;;10.35;7.35;;;;;;;2.73;100.00;102029.81;676457;29;1536;-81
2022/03/15 01:20:33;;;;;;;10.96;7.28;;;;;;;2.71;100.00;102060.72;678775;29;1069;-80
2022/03/15 01:20:54;;;;;;;11.13;7.50;;;;;;;2.67;100.00;102040.72;679534;29;1234;-81
2022/03/15 01:21:15;;;;;;;12.63;8.00;;;;;;;2.65;100.00;102044.91;673579;29;1373;-80
2022/03/15 01:21:37;;;;;;;13.48;7.93;;;;;;;2.67;100.00;102057.91;672103;29;1417;-81
2022/03/15 01:21:58;;;;;;;10.93;7.72;;;;;;;2.70;100.00;102035.69;673960;29;1472;-81
2022/03/15 01:22:21;;;;;;;12.10;8.07;;;;;;;2.67;100.00;102037.22;675054;29;4509;-81
2022/03/15 01:22:42;;;;;;;12.50;7.80;;;;;;;2.63;100.00;102028.47;677059;29;1424;-81
2022/03/15 01:23:02;;;;;;;11.77;7.77;;;;;;;2.61;100.00;102030.06;677935;29;1417;-81
2022/03/15 01:23:23;;;;;;;12.27;7.72;;;;;;;2.59;100.00;102039.47;678945;29;1444;-81
2022/03/15 01:23:43;;;;;;;13.85;7.90;;;;;;;2.55;100.00;102029.78;676521;29;1307;-81
2022/03/15 01:24:06;;;;;;;12.88;7.78;;;;;;;2.60;100.00;102030.88;675923;29;1265;-80
2022/03/15 01:24:27;;;;;;;12.38;7.38;;;;;;;2.70;100.00;102029.63;675471;29;1641;-81
2022/03/15 01:24:54;;;;;;;11.00;7.50;;;;;;;2.71;100.00;102039.16;671490;29;1520;-80
2022/03/15 01:25:22;;;;;;;11.57;7.60;;;;;;;2.66;100.00;102041.53;670197;29;4376;-80
2022/03/15 01:25:42;;;;;;;11.77;7.60;;;;;;;2.67;100.00;102035.56;672706;29;1392;-80
2022/03/15 01:26:03;;;;;;;11.43;7.53;;;;;;;2.65;100.00;102032.00;672901;29;2018;-80
2022/03/15 01:26:24;;;;;;;10.43;7.38;;;;;;;2.63;100.00;102030.16;675744;29;1529;-80
2022/03/15 01:26:47;;;;;;;10.65;7.50;;;;;;;2.65;100.00;102025.97;677301;29;1416;-81
2022/03/15 01:27:08;;;;;;;11.33;7.63;;;;;;;2.70;100.00;102045.13;672481;29;1359;-80
2022/03/15 01:27:28;;;;;;;11.23;7.45;;;;;;;2.78;100.00;102030.91;678560;29;2749;-81
2022/03/15 01:27:50;;;;;;;11.77;7.38;;;;;;;2.80;100.00;102029.28;678792;29;1402;-80
2022/03/15 01:28:14;;;;;;;11.07;7.10;;;;;;;2.84;100.00;102032.94;678809;29;1344;-81
2022/03/15 01:28:38;;;;;;;10.20;7.00;;;;;;;2.90;100.00;102041.84;677671;29;6240;-81
2022/03/15 01:28:58;;;;;;;10.68;7.22;;;;;;;2.87;100.00;102056.31;680436;29;960;-80
2022/03/15 01:29:20;;;;;;;11.90;7.83;;;;;;;2.82;100.00;102025.06;675303;28;1186;-81
2022/03/15 01:29:42;;;;;;;11.30;7.88;;;;;;;2.74;100.00;102059.97;673411;29;1651;-80
2022/03/15 01:30:03;;;;;;;11.27;7.78;;;;;;;2.69;100.00;102054.59;671730;29;1212;-81
2022/03/15 01:30:24;;;;;;;11.70;7.60;;;;;;;2.66;100.00;102026.03;671724;29;1389;-80
2022/03/15 01:30:45;;;;;;;11.60;8.00;;;;;;;2.66;100.00;102033.78;673233;29;1652;-81
2022/03/15 01:31:07;;;;;;;10.80;7.83;;;;;;;2.64;100.00;102030.22;678240;29;1287;-81
2022/03/15 01:31:28;;;;;;;11.68;7.85;;;;;;;2.62;100.00;102042.19;677232;29;4382;-81
2022/03/15 01:31:48;;;;;;;13.75;7.93;;;;;;;2.60;100.00;102058.41;675224;29;1500;-81
2022/03/15 01:32:09;;;;;;;12.93;7.97;;;;;;;2.57;100.00;102071.16;672470;29;1336;-80
2022/03/15 01:32:30;;;;;;;11.80;7.90;;;;;;;2.53;100.00;102023.63;673724;29;1521;-81
2022/03/15 01:32:50;;;;;;;12.70;8.00;;;;;;;2.57;100.00;102037.59;675369;29;1674;-80
2022/03/15 01:33:11;;;;;;;11.82;8.15;;;;;;;2.54;100.00;102028.88;677243;29;1403;-80
2022/03/15 01:33:34;;;;;;;12.07;8.60;;;;;;;2.59;100.00;102025.63;678082;28;1253;-80
2022/03/15 01:34:03;;;;;;;11.45;7.93;;;;;;;2.61;100.00;102073.97;679470;29;1504;-82
2022/03/15 01:34:29;;;;;;;11.55;7.90;;;;;;;2.59;100.00;102056.63;675794;29;4400;-80
2022/03/15 01:34:51;;;;;;;11.88;8.30;;;;;;;2.57;100.00;102053.09;675428;29;1401;-80
2022/03/15 01:35:11;;;;;;;11.57;8.05;;;;;;;2.60;100.00;102054.13;672843;29;1239;-81
2022/03/15 01:35:32;;;;;;;12.77;8.00;;;;;;;2.58;100.00;102041.97;675508;29;1205;-81
2022/03/15 01:35:53;;;;;;;11.07;7.60;;;;;;;2.60;100.00;102028.28;676711;29;1391;-80
2022/03/15 01:36:16;;;;;;;10.85;7.60;;;;;;;2.61;100.00;102055.91;672688;29;1213;-81
2022/03/15 01:36:40;;;;;;;12.50;8.43;;;;;;;2.61;100.00;102047.28;673449;29;1405;-80
2022/03/15 01:37:06;;;;;;;12.35;8.32;;;;;;;2.65;100.00;102021.66;673154;29;1690;-81
2022/03/15 01:37:29;;;;;;;10.40;7.47;;;;;;;2.72;100.00;102041.81;671759;29;5216;-81
2022/03/15 01:37:51;;;;;;;10.70;7.72;;;;;;;2.69;100.00;102023.59;673251;29;1977;-82
2022/03/15 01:38:14;;;;;;;10.57;7.57;;;;;;;2.66;100.00;102036.34;676813;29;1409;-81
2022/03/15 01:38:35;;;;;;;12.82;8.27;;;;;;;2.62;100.00;102049.94;675119;28;1280;-81
2022/03/15 01:38:57;;;;;;;12.70;8.05;;;;;;;2.65;100.00;102039.75;675643;29;1519;-81
2022/03/15 01:39:20;;;;;;;11.68;7.57;;;;;;;2.70;100.00;102037.38;672705;29;1249;-81
2022/03/15 01:39:40;;;;;;;11.23;7.57;;;;;;;2.71;100.00;102057.22;674462;29;1726;-81
2022/03/15 01:40:01;;;;;;;11.40;7.53;;;;;;;2.77;100.00;102056.66;674112;29;1845;-81
2022/03/15 01:40:22;;;;;;;12.43;8.00;;;;;;;2.79;100.00;102055.91;674967;29;4455;-80
2022/03/15 01:40:48;;;;;;;11.13;7.63;;;;;;;2.80;100.00;102042.22;678612;29;1210;-81
2022/03/15 01:41:11;;;;;;;11.13;7.78;;;;;;;2.83;100.00;102033.72;677345;29;933;-82
2022/03/15 01:41:39;;;;;;;10.55;7.43;;;;;;;2.83;100.00;102032.03;676090;29;1456;-80
2022/03/15 01:42:02;;;;;;;11.82;7.60;;;;;;;2.79;100.00;102065.38;672748;29;1398;-81
2022/03/15 01:42:25;;;;;;;12.55;7.90;;;;;;;2.69;100.00;102053.72;675813;29;1506;-81
2022/03/15 01:42:48;;;;;;;11.90;7.78;;;;;;;2.62;100.00;102059.38;672822;29;1446;-81
2022/03/15 01:43:09;;;;;;;11.77;7.53;;;;;;;2.56;100.00;102028.94;672685;29;1358;-81
2022/03/15 01:43:30;;;;;;;12.15;8.00;;;;;;;2.54;100.00;102043.50;673901;29;4332;-81
2022/03/15 01:43:52;;;;;;;12.25;7.85;;;;;;;2.52;100.00;102030.50;676069;29;1356;-81
2022/03/15 01:44:18;;;;;;;12.98;8.10;;;;;;;2.51;100.00;102048.50;675278;29;1340;-80
2022/03/15 01:44:49;;;;;;;12.07;7.50;;;;;;;2.54;100.00;102028.00;676931;29;1334;-80